sensor_id;sensor_type;location;lat;lon;timestamp;pressure;altitude;pressure_sealevel;temperature;humidity
14800;BME280;7491;57.750;11.970;2023-04-24T00:00:10;75315.75;;;-142.11;100.00
14800;BME280;7491;57.750;11.970;2023-04-24T00:03:03;75307.59;;;-142.11;100.00
14800;BME280;7491;57.750;11.970;2023-04-24T00:16:08;75279.06;;;-142.11;100.00
14800;BME280;7491;57.750;11.970;2023-04-24T00:36:29;75277.03;;;-142.11;100.00
14800;BME280;7491;57.750;11.970;2023-04-24T03:48:30;75258.69;;;-142.11;100.00
14800;BME280;7491;57.750;11.970;2023-04-24T03:58:31;75254.63;;;-142.11;100.00
14800;BME280;7491;57.750;11.970;2023-04-24T06:09:06;75087.50;;;-142.11;100.00
14800;BME280;7491;57.750;11.970;2023-04-24T06:57:53;74959.13;;;-142.11;100.00
14800;BME280;7491;57.750;11.970;2023-04-24T07:00:20;74942.81;;;-142.11;100.00
14800;BME280;7491;57.750;11.970;2023-04-24T07:02:46;74934.66;;;-142.11;100.00
14800;BME280;7491;57.750;11.970;2023-04-24T07:05:13;74928.56;;;-142.11;100.00
14800;BME280;7491;57.750;11.970;2023-04-24T07:07:40;74910.22;;;-142.11;100.00
14800;BME280;7491;57.750;11.970;2023-04-24T07:10:09;74904.09;;;-142.11;100.00
14800;BME280;7491;57.750;11.970;2023-04-24T07:12:36;74920.41;;;-142.11;100.00
14800;BME280;7491;57.750;11.970;2023-04-24T07:15:04;74916.31;;;-142.11;100.00
14800;BME280;7491;57.750;11.970;2023-04-24T07:17:31;74918.38;;;-142.11;100.00
14800;BME280;7491;57.750;11.970;2023-04-24T07:19:58;74928.56;;;-142.11;100.00
14800;BME280;7491;57.750;11.970;2023-04-24T07:22:24;74918.38;;;-142.11;100.00
14800;BME280;7491;57.750;11.970;2023-04-24T07:24:51;74940.78;;;-142.11;100.00
14800;BME280;7491;57.750;11.970;2023-04-24T07:27:20;74944.84;;;-142.11;100.00
14800;BME280;7491;57.750;11.970;2023-04-24T07:29:46;74936.72;;;-142.11;100.00
14800;BME280;7491;57.750;11.970;2023-04-24T07:32:13;74930.59;;;-142.11;100.00
14800;BME280;7491;57.750;11.970;2023-04-24T07:34:40;74938.75;;;-142.11;100.00
14800;BME280;7491;57.750;11.970;2023-04-24T07:37:06;74946.91;;;-142.11;100.00
14800;BME280;7491;57.750;11.970;2023-04-24T07:39:33;74961.16;;;-142.11;100.00
14800;BME280;7491;57.750;11.970;2023-04-24T07:42:00;74975.44;;;-142.11;100.00
14800;BME280;7491;57.750;11.970;2023-04-24T07:44:28;74971.34;;;-142.11;100.00
14800;BME280;7491;57.750;11.970;2023-04-24T07:46:55;74981.53;;;-142.11;100.00
14800;BME280;7491;57.750;11.970;2023-04-24T07:49:22;75003.97;;;-142.11;100.00
14800;BME280;7491;57.750;11.970;2023-04-24T07:51:50;75006.00;;;-142.11;100.00
14800;BME280;7491;57.750;11.970;2023-04-24T07:54:16;75022.28;;;-142.11;100.00
14800;BME280;7491;57.750;11.970;2023-04-24T07:56:43;75026.38;;;-142.11;100.00
14800;BME280;7491;57.750;11.970;2023-04-24T07:59:10;75034.53;;;-142.11;100.00
14800;BME280;7491;57.750;11.970;2023-04-24T08:01:38;75038.59;;;-142.11;100.00
14800;BME280;7491;57.750;11.970;2023-04-24T08:04:05;75042.69;;;-142.11;100.00
14800;BME280;7491;57.750;11.970;2023-04-24T08:06:32;75061.00;;;-142.11;100.00
14800;BME280;7491;57.750;11.970;2023-04-24T08:08:59;75067.13;;;-142.11;100.00
14800;BME280;7491;57.750;11.970;2023-04-24T08:11:27;75077.31;;;-142.11;100.00
14800;BME280;7491;57.750;11.970;2023-04-24T08:13:54;75079.34;;;-142.11;100.00
14800;BME280;7491;57.750;11.970;2023-04-24T08:16:21;75095.66;;;-142.11;100.00
14800;BME280;7491;57.750;11.970;2023-04-24T08:18:53;75105.84;;;-142.11;100.00
14800;BME280;7491;57.750;11.970;2023-04-24T08:21:20;75120.13;;;-142.11;100.00
14800;BME280;7491;57.750;11.970;2023-04-24T08:23:47;75099.72;;;-142.11;100.00
14800;BME280;7491;57.750;11.970;2023-04-24T08:26:28;75103.81;;;-142.11;100.00
14800;BME280;7491;57.750;11.970;2023-04-24T08:33:08;75107.88;;;-142.11;100.00
14800;BME280;7491;57.750;11.970;2023-04-24T10:40:35;74875.56;;;-142.11;100.00
14800;BME280;7491;57.750;11.970;2023-04-24T10:43:25;74836.84;;;-142.11;100.00
14800;BME280;7491;57.750;11.970;2023-04-24T10:46:00;74828.72;;;-142.11;100.00
14800;BME280;7491;57.750;11.970;2023-04-24T10:48:27;74836.84;;;-142.11;100.00
14800;BME280;7491;57.750;11.970;2023-04-24T10:50:54;74816.47;;;-142.11;100.00
14800;BME280;7491;57.750;11.970;2023-04-24T10:53:30;74779.81;;;-142.11;100.00
14800;BME280;7491;57.750;11.970;2023-04-24T10:56:02;74771.66;;;-142.11;100.00
14800;BME280;7491;57.750;11.970;2023-04-24T10:58:37;74745.16;;;-142.11;100.00
14800;BME280;7491;57.750;11.970;2023-04-24T11:01:05;74718.66;;;-142.11;100.00
14800;BME280;7491;57.750;11.970;2023-04-24T11:03:34;74671.81;;;-142.11;100.00
14800;BME280;7491;57.750;11.970;2023-04-24T11:06:03;74653.47;;;-142.11;100.00
14800;BME280;7491;57.750;11.970;2023-04-24T11:08:32;74655.50;;;-142.11;100.00
14800;BME280;7491;57.750;11.970;2023-04-24T11:11:09;74641.25;;;-142.11;100.00
14800;BME280;7491;57.750;11.970;2023-04-24T11:14:09;74614.75;;;-142.11;100.00
14800;BME280;7491;57.750;11.970;2023-04-24T11:16:39;74598.44;;;-142.11;100.00
14800;BME280;7491;57.750;11.970;2023-04-24T11:19:17;74580.13;;;-142.11;100.00
14800;BME280;7491;57.750;11.970;2023-04-24T11:21:45;74600.50;;;-142.11;100.00
14800;BME280;7491;57.750;11.970;2023-04-24T11:24:23;74600.50;;;-142.11;100.00
14800;BME280;7491;57.750;11.970;2023-04-24T11:26:53;74606.59;;;-142.11;100.00
14800;BME280;7491;57.750;11.970;2023-04-24T11:29:20;74555.66;;;-142.11;100.00
14800;BME280;7491;57.750;11.970;2023-04-24T11:31:47;74574.00;;;-142.11;100.00
14800;BME280;7491;57.750;11.970;2023-04-24T11:34:17;74561.78;;;-142.11;100.00
14800;BME280;7491;57.750;11.970;2023-04-24T11:36:44;74545.47;;;-142.11;100.00
14800;BME280;7491;57.750;11.970;2023-04-24T11:39:14;74537.31;;;-142.11;100.00
14800;BME280;7491;57.750;11.970;2023-04-24T11:41:41;74508.81;;;-142.11;100.00
14800;BME280;7491;57.750;11.970;2023-04-24T11:44:09;74514.91;;;-142.11;100.00
14800;BME280;7491;57.750;11.970;2023-04-24T11:46:39;74523.06;;;-142.11;100.00
14800;BME280;7491;57.750;11.970;2023-04-24T11:49:06;74514.91;;;-142.11;100.00
14800;BME280;7491;57.750;11.970;2023-04-24T11:51:34;74516.94;;;-142.11;100.00
14800;BME280;7491;57.750;11.970;2023-04-24T11:54:00;74514.91;;;-142.11;100.00
14800;BME280;7491;57.750;11.970;2023-04-24T11:56:28;74494.53;;;-142.11;100.00
14800;BME280;7491;57.750;11.970;2023-04-24T11:58:55;74486.38;;;-142.11;100.00
14800;BME280;7491;57.750;11.970;2023-04-24T12:01:23;74470.09;;;-142.11;100.00
14800;BME280;7491;57.750;11.970;2023-04-24T12:03:50;74457.88;;;-142.11;100.00
14800;BME280;7491;57.750;11.970;2023-04-24T12:06:17;74443.59;;;-142.11;100.00
14800;BME280;7491;57.750;11.970;2023-04-24T12:08:47;74455.81;;;-142.11;100.00
14800;BME280;7491;57.750;11.970;2023-04-24T12:11:15;74417.13;;;-142.11;100.00
14800;BME280;7491;57.750;11.970;2023-04-24T12:13:44;74415.06;;;-142.11;100.00
14800;BME280;7491;57.750;11.970;2023-04-24T12:16:11;74413.03;;;-142.11;100.00
14800;BME280;7491;57.750;11.970;2023-04-24T12:18:43;74402.84;;;-142.11;100.00
14800;BME280;7491;57.750;11.970;2023-04-24T12:21:18;74433.41;;;-142.11;100.00
14800;BME280;7491;57.750;11.970;2023-04-24T12:23:44;74425.25;;;-142.11;100.00
14800;BME280;7491;57.750;11.970;2023-04-24T12:26:16;74398.78;;;-142.11;100.00
14800;BME280;7491;57.750;11.970;2023-04-24T12:28:46;74419.16;;;-142.11;100.00
14800;BME280;7491;57.750;11.970;2023-04-24T12:31:13;74431.38;;;-142.11;100.00
14800;BME280;7491;57.750;11.970;2023-04-24T12:33:40;74439.53;;;-142.11;100.00
14800;BME280;7491;57.750;11.970;2023-04-24T12:36:11;74427.31;;;-142.11;100.00
14800;BME280;7491;57.750;11.970;2023-04-24T12:38:38;74445.63;;;-142.11;100.00
14800;BME280;7491;57.750;11.970;2023-04-24T12:41:09;74451.75;;;-142.11;100.00
14800;BME280;7491;57.750;11.970;2023-04-24T12:43:36;74431.38;;;-142.11;100.00
14800;BME280;7491;57.750;11.970;2023-04-24T12:46:04;74447.69;;;-142.11;100.00
14800;BME280;7491;57.750;11.970;2023-04-24T12:48:31;74447.69;;;-142.11;100.00
14800;BME280;7491;57.750;11.970;2023-04-24T12:50:58;74445.63;;;-142.11;100.00
14800;BME280;7491;57.750;11.970;2023-04-24T12:53:28;74437.50;;;-142.11;100.00
14800;BME280;7491;57.750;11.970;2023-04-24T12:55:56;74415.06;;;-142.11;100.00
14800;BME280;7491;57.750;11.970;2023-04-24T12:58:23;74402.84;;;-142.11;100.00
14800;BME280;7491;57.750;11.970;2023-04-24T13:00:50;74408.97;;;-142.11;100.00
14800;BME280;7491;57.750;11.970;2023-04-24T13:03:17;74406.94;;;-142.11;100.00
14800;BME280;7491;57.750;11.970;2023-04-24T13:05:44;74406.94;;;-142.11;100.00
14800;BME280;7491;57.750;11.970;2023-04-24T13:08:10;74419.16;;;-142.11;100.00
14800;BME280;7491;57.750;11.970;2023-04-24T13:10:39;74419.16;;;-142.11;100.00
14800;BME280;7491;57.750;11.970;2023-04-24T13:13:06;74419.16;;;-142.11;100.00
14800;BME280;7491;57.750;11.970;2023-04-24T13:15:33;74415.06;;;-142.11;100.00
14800;BME280;7491;57.750;11.970;2023-04-24T13:18:00;74417.13;;;-142.11;100.00
14800;BME280;7491;57.750;11.970;2023-04-24T13:20:27;74433.41;;;-142.11;100.00
14800;BME280;7491;57.750;11.970;2023-04-24T13:22:54;74437.50;;;-142.11;100.00
14800;BME280;7491;57.750;11.970;2023-04-24T13:25:21;74445.63;;;-142.11;100.00
14800;BME280;7491;57.750;11.970;2023-04-24T13:27:50;74447.69;;;-142.11;100.00
14800;BME280;7491;57.750;11.970;2023-04-24T13:30:17;74441.56;;;-142.11;100.00
14800;BME280;7491;57.750;11.970;2023-04-24T13:32:43;74433.41;;;-142.11;100.00
14800;BME280;7491;57.750;11.970;2023-04-24T13:35:10;74427.31;;;-142.11;100.00
14800;BME280;7491;57.750;11.970;2023-04-24T13:37:37;74421.19;;;-142.11;100.00
14800;BME280;7491;57.750;11.970;2023-04-24T13:40:05;74406.94;;;-142.11;100.00
14800;BME280;7491;57.750;11.970;2023-04-24T13:42:32;74386.56;;;-142.11;100.00
14800;BME280;7491;57.750;11.970;2023-04-24T13:45:00;74386.56;;;-142.11;100.00
14800;BME280;7491;57.750;11.970;2023-04-24T13:47:28;74376.38;;;-142.11;100.00
14800;BME280;7491;57.750;11.970;2023-04-24T13:49:55;74388.59;;;-142.11;100.00
14800;BME280;7491;57.750;11.970;2023-04-24T13:52:22;74384.50;;;-142.11;100.00
14800;BME280;7491;57.750;11.970;2023-04-24T13:54:48;74382.47;;;-142.11;100.00
14800;BME280;7491;57.750;11.970;2023-04-24T13:57:56;74394.69;;;-142.11;100.00
14800;BME280;7491;57.750;11.970;2023-04-24T14:00:24;74374.31;;;-142.11;100.00
14800;BME280;7491;57.750;11.970;2023-04-24T14:02:51;74349.88;;;-142.11;100.00
14800;BME280;7491;57.750;11.970;2023-04-24T14:05:18;74343.78;;;-142.11;100.00
14800;BME280;7491;57.750;11.970;2023-04-24T14:07:50;74341.72;;;-142.11;100.00
14800;BME280;7491;57.750;11.970;2023-04-24T14:10:43;74353.94;;;-142.11;100.00
14800;BME280;7491;57.750;11.970;2023-04-24T14:13:23;74349.88;;;-142.11;100.00
14800;BME280;7491;57.750;11.970;2023-04-24T14:15:52;74358.03;;;-142.11;100.00
14800;BME280;7491;57.750;11.970;2023-04-24T14:18:19;74351.91;;;-142.11;100.00
14800;BME280;7491;57.750;11.970;2023-04-24T14:20:46;74380.44;;;-142.11;100.00
14800;BME280;7491;57.750;11.970;2023-04-24T14:23:12;74366.19;;;-142.11;100.00
14800;BME280;7491;57.750;11.970;2023-04-24T14:25:39;74366.19;;;-142.11;100.00
14800;BME280;7491;57.750;11.970;2023-04-24T14:28:06;74366.19;;;-142.11;100.00
14800;BME280;7491;57.750;11.970;2023-04-24T14:30:33;74366.19;;;-142.11;100.00
14800;BME280;7491;57.750;11.970;2023-04-24T14:33:01;74366.19;;;-142.11;100.00
14800;BME280;7491;57.750;11.970;2023-04-24T14:35:27;74364.13;;;-142.11;100.00
14800;BME280;7491;57.750;11.970;2023-04-24T14:37:58;74374.31;;;-142.11;100.00
14800;BME280;7491;57.750;11.970;2023-04-24T14:40:25;74347.84;;;-142.11;100.00
14800;BME280;7491;57.750;11.970;2023-04-24T14:42:52;74362.09;;;-142.11;100.00
14800;BME280;7491;57.750;11.970;2023-04-24T14:45:18;74360.06;;;-142.11;100.00
14800;BME280;7491;57.750;11.970;2023-04-24T14:47:45;74353.94;;;-142.11;100.00
14800;BME280;7491;57.750;11.970;2023-04-24T14:50:14;74366.19;;;-142.11;100.00
14800;BME280;7491;57.750;11.970;2023-04-24T14:52:40;74370.25;;;-142.11;100.00
14800;BME280;7491;57.750;11.970;2023-04-24T14:55:08;74384.50;;;-142.11;100.00
14800;BME280;7491;57.750;11.970;2023-04-24T14:57:36;74374.31;;;-142.11;100.00
14800;BME280;7491;57.750;11.970;2023-04-24T15:00:04;74376.38;;;-142.11;100.00
14800;BME280;7491;57.750;11.970;2023-04-24T15:02:34;74382.47;;;-142.11;100.00
14800;BME280;7491;57.750;11.970;2023-04-24T15:05:03;74384.50;;;-142.11;100.00
14800;BME280;7491;57.750;11.970;2023-04-24T15:07:31;74372.28;;;-142.11;100.00
14800;BME280;7491;57.750;11.970;2023-04-24T15:09:58;74374.31;;;-142.11;100.00
14800;BME280;7491;57.750;11.970;2023-04-24T15:12:25;74386.56;;;-142.11;100.00
14800;BME280;7491;57.750;11.970;2023-04-24T15:14:59;74374.31;;;-142.11;100.00
14800;BME280;7491;57.750;11.970;2023-04-24T15:17:30;74374.31;;;-142.11;100.00
14800;BME280;7491;57.750;11.970;2023-04-24T15:19:59;74376.38;;;-142.11;100.00
14800;BME280;7491;57.750;11.970;2023-04-24T15:22:28;74382.47;;;-142.11;100.00
14800;BME280;7491;57.750;11.970;2023-04-24T15:24:56;74382.47;;;-142.11;100.00
14800;BME280;7491;57.750;11.970;2023-04-24T15:27:23;74370.25;;;-142.11;100.00
14800;BME280;7491;57.750;11.970;2023-04-24T15:29:55;74370.25;;;-142.11;100.00
14800;BME280;7491;57.750;11.970;2023-04-24T15:32:35;74386.56;;;-142.11;100.00
14800;BME280;7491;57.750;11.970;2023-04-24T15:35:02;74388.59;;;-142.11;100.00
14800;BME280;7491;57.750;11.970;2023-04-24T15:37:34;74378.41;;;-142.11;100.00
14800;BME280;7491;57.750;11.970;2023-04-24T15:40:09;74376.38;;;-142.11;100.00
14800;BME280;7491;57.750;11.970;2023-04-24T15:42:38;74370.25;;;-142.11;100.00
14800;BME280;7491;57.750;11.970;2023-04-24T15:45:10;74382.47;;;-142.11;100.00
14800;BME280;7491;57.750;11.970;2023-04-24T15:47:38;74384.50;;;-142.11;100.00
14800;BME280;7491;57.750;11.970;2023-04-24T15:50:06;74384.50;;;-142.11;100.00
14800;BME280;7491;57.750;11.970;2023-04-24T15:52:34;74390.63;;;-142.11;100.00
14800;BME280;7491;57.750;11.970;2023-04-24T15:55:02;74382.47;;;-142.11;100.00
14800;BME280;7491;57.750;11.970;2023-04-24T15:57:35;74390.63;;;-142.11;100.00
14800;BME280;7491;57.750;11.970;2023-04-24T16:00:05;74388.59;;;-142.11;100.00
14800;BME280;7491;57.750;11.970;2023-04-24T16:02:41;74390.63;;;-142.11;100.00
14800;BME280;7491;57.750;11.970;2023-04-24T16:05:08;74386.56;;;-142.11;100.00
14800;BME280;7491;57.750;11.970;2023-04-24T16:07:38;74372.28;;;-142.11;100.00
14800;BME280;7491;57.750;11.970;2023-04-24T16:10:28;74386.56;;;-142.11;100.00
14800;BME280;7491;57.750;11.970;2023-04-24T16:13:10;74370.25;;;-142.11;100.00
14800;BME280;7491;57.750;11.970;2023-04-24T16:15:39;74382.47;;;-142.11;100.00
14800;BME280;7491;57.750;11.970;2023-04-24T16:18:06;74353.94;;;-142.11;100.00
14800;BME280;7491;57.750;11.970;2023-04-24T16:20:33;74382.47;;;-142.11;100.00
14800;BME280;7491;57.750;11.970;2023-04-24T16:23:03;74353.94;;;-142.11;100.00
14800;BME280;7491;57.750;11.970;2023-04-24T16:25:33;74366.19;;;-142.11;100.00
14800;BME280;7491;57.750;11.970;2023-04-24T16:28:02;74360.06;;;-142.11;100.00
14800;BME280;7491;57.750;11.970;2023-04-24T16:30:43;74360.06;;;-142.11;100.00
14800;BME280;7491;57.750;11.970;2023-04-24T16:33:45;74380.44;;;-142.11;100.00
14800;BME280;7491;57.750;11.970;2023-04-24T16:36:12;74378.41;;;-142.11;100.00
14800;BME280;7491;57.750;11.970;2023-04-24T16:38:39;74353.94;;;-142.11;100.00
14800;BME280;7491;57.750;11.970;2023-04-24T16:41:06;74358.03;;;-142.11;100.00
14800;BME280;7491;57.750;11.970;2023-04-24T16:43:33;74366.19;;;-142.11;100.00
14800;BME280;7491;57.750;11.970;2023-04-24T16:46:03;74362.09;;;-142.11;100.00
14800;BME280;7491;57.750;11.970;2023-04-24T16:48:34;74364.13;;;-142.11;100.00
14800;BME280;7491;57.750;11.970;2023-04-24T16:51:01;74368.22;;;-142.11;100.00
14800;BME280;7491;57.750;11.970;2023-04-24T16:53:27;74362.09;;;-142.11;100.00
14800;BME280;7491;57.750;11.970;2023-04-24T16:55:57;74372.28;;;-142.11;100.00
14800;BME280;7491;57.750;11.970;2023-04-24T16:58:27;74358.03;;;-142.11;100.00
14800;BME280;7491;57.750;11.970;2023-04-24T17:00:53;74366.19;;;-142.11;100.00
14800;BME280;7491;57.750;11.970;2023-04-24T17:03:22;74366.19;;;-142.11;100.00
14800;BME280;7491;57.750;11.970;2023-04-24T17:05:49;74370.25;;;-142.11;100.00
14800;BME280;7491;57.750;11.970;2023-04-24T17:08:16;74362.09;;;-142.11;100.00
14800;BME280;7491;57.750;11.970;2023-04-24T17:10:43;74366.19;;;-142.11;100.00
14800;BME280;7491;57.750;11.970;2023-04-24T17:13:10;74358.03;;;-142.11;100.00
14800;BME280;7491;57.750;11.970;2023-04-24T17:15:38;74362.09;;;-142.11;100.00
14800;BME280;7491;57.750;11.970;2023-04-24T17:18:05;74370.25;;;-142.11;100.00
14800;BME280;7491;57.750;11.970;2023-04-24T17:20:33;74372.28;;;-142.11;100.00
14800;BME280;7491;57.750;11.970;2023-04-24T17:23:02;74370.25;;;-142.11;100.00
14800;BME280;7491;57.750;11.970;2023-04-24T17:25:29;74366.19;;;-142.11;100.00
14800;BME280;7491;57.750;11.970;2023-04-24T17:27:58;74364.13;;;-142.11;100.00
14800;BME280;7491;57.750;11.970;2023-04-24T17:30:25;74374.31;;;-142.11;100.00
14800;BME280;7491;57.750;11.970;2023-04-24T17:32:58;74388.59;;;-142.11;100.00
14800;BME280;7491;57.750;11.970;2023-04-24T17:35:28;74382.47;;;-142.11;100.00
14800;BME280;7491;57.750;11.970;2023-04-24T17:37:57;74380.44;;;-142.11;100.00
14800;BME280;7491;57.750;11.970;2023-04-24T17:40:24;74372.28;;;-142.11;100.00
14800;BME280;7491;57.750;11.970;2023-04-24T17:42:51;74382.47;;;-142.11;100.00
14800;BME280;7491;57.750;11.970;2023-04-24T17:45:18;74388.59;;;-142.11;100.00
14800;BME280;7491;57.750;11.970;2023-04-24T17:47:45;74402.84;;;-142.11;100.00
14800;BME280;7491;57.750;11.970;2023-04-24T17:50:27;74400.81;;;-142.11;100.00
14800;BME280;7491;57.750;11.970;2023-04-24T17:53:23;74419.16;;;-142.11;100.00
14800;BME280;7491;57.750;11.970;2023-04-24T17:55:50;74437.50;;;-142.11;100.00
14800;BME280;7491;57.750;11.970;2023-04-24T17:58:29;74419.16;;;-142.11;100.00
14800;BME280;7491;57.750;11.970;2023-04-24T18:01:02;74423.22;;;-142.11;100.00
14800;BME280;7491;57.750;11.970;2023-04-24T18:03:42;74447.69;;;-142.11;100.00
14800;BME280;7491;57.750;11.970;2023-04-24T18:06:17;74431.38;;;-142.11;100.00
14800;BME280;7491;57.750;11.970;2023-04-24T18:08:45;74435.44;;;-142.11;100.00
14800;BME280;7491;57.750;11.970;2023-04-24T18:11:15;74443.59;;;-142.11;100.00
14800;BME280;7491;57.750;11.970;2023-04-24T18:13:48;74455.81;;;-142.11;100.00
14800;BME280;7491;57.750;11.970;2023-04-24T18:16:24;74449.72;;;-142.11;100.00
14800;BME280;7491;57.750;11.970;2023-04-24T18:18:54;74463.97;;;-142.11;100.00
14800;BME280;7491;57.750;11.970;2023-04-24T18:21:26;74474.16;;;-142.11;100.00
14800;BME280;7491;57.750;11.970;2023-04-24T18:24:02;74449.72;;;-142.11;100.00
14800;BME280;7491;57.750;11.970;2023-04-24T18:26:34;74470.09;;;-142.11;100.00
14800;BME280;7491;57.750;11.970;2023-04-24T18:29:05;74459.91;;;-142.11;100.00
14800;BME280;7491;57.750;11.970;2023-04-24T18:31:32;74461.94;;;-142.11;100.00
14800;BME280;7491;57.750;11.970;2023-04-24T18:33:58;74466.00;;;-142.11;100.00
14800;BME280;7491;57.750;11.970;2023-04-24T18:36:25;74459.91;;;-142.11;100.00
14800;BME280;7491;57.750;11.970;2023-04-24T18:38:52;74459.91;;;-142.11;100.00
14800;BME280;7491;57.750;11.970;2023-04-24T18:41:20;74466.00;;;-142.11;100.00
14800;BME280;7491;57.750;11.970;2023-04-24T18:43:47;74459.91;;;-142.11;100.00
14800;BME280;7491;57.750;11.970;2023-04-24T18:46:16;74468.06;;;-142.11;100.00
14800;BME280;7491;57.750;11.970;2023-04-24T18:48:43;74474.16;;;-142.11;100.00
14800;BME280;7491;57.750;11.970;2023-04-24T18:51:12;74478.25;;;-142.11;100.00
14800;BME280;7491;57.750;11.970;2023-04-24T18:53:42;74472.13;;;-142.11;100.00
14800;BME280;7491;57.750;11.970;2023-04-24T18:56:10;74484.34;;;-142.11;100.00
14800;BME280;7491;57.750;11.970;2023-04-24T18:58:38;74472.13;;;-142.11;100.00
14800;BME280;7491;57.750;11.970;2023-04-24T19:01:10;74468.06;;;-142.11;100.00
14800;BME280;7491;57.750;11.970;2023-04-24T19:03:37;74470.09;;;-142.11;100.00
14800;BME280;7491;57.750;11.970;2023-04-24T19:06:04;74463.97;;;-142.11;100.00
14800;BME280;7491;57.750;11.970;2023-04-24T19:08:30;74470.09;;;-142.11;100.00
14800;BME280;7491;57.750;11.970;2023-04-24T19:10:57;74459.91;;;-142.11;100.00
14800;BME280;7491;57.750;11.970;2023-04-24T19:13:27;74474.16;;;-142.11;100.00
14800;BME280;7491;57.750;11.970;2023-04-24T19:15:55;74480.28;;;-142.11;100.00
14800;BME280;7491;57.750;11.970;2023-04-24T19:18:22;74466.00;;;-142.11;100.00
14800;BME280;7491;57.750;11.970;2023-04-24T19:20:50;74468.06;;;-142.11;100.00
14800;BME280;7491;57.750;11.970;2023-04-24T19:23:17;74470.09;;;-142.11;100.00
14800;BME280;7491;57.750;11.970;2023-04-24T19:25:44;74470.09;;;-142.11;100.00
14800;BME280;7491;57.750;11.970;2023-04-24T19:28:10;74478.25;;;-142.11;100.00
14800;BME280;7491;57.750;11.970;2023-04-24T19:30:37;74474.16;;;-142.11;100.00
14800;BME280;7491;57.750;11.970;2023-04-24T19:33:06;74472.13;;;-142.11;100.00
14800;BME280;7491;57.750;11.970;2023-04-24T19:35:33;74472.13;;;-142.11;100.00
14800;BME280;7491;57.750;11.970;2023-04-24T19:38:00;74474.16;;;-142.11;100.00
14800;BME280;7491;57.750;11.970;2023-04-24T19:40:27;74474.16;;;-142.11;100.00
14800;BME280;7491;57.750;11.970;2023-04-24T19:42:54;74461.94;;;-142.11;100.00
14800;BME280;7491;57.750;11.970;2023-04-24T19:45:20;74451.75;;;-142.11;100.00
14800;BME280;7491;57.750;11.970;2023-04-24T19:47:47;74457.88;;;-142.11;100.00
14800;BME280;7491;57.750;11.970;2023-04-24T19:50:15;74459.91;;;-142.11;100.00
14800;BME280;7491;57.750;11.970;2023-04-24T19:52:42;74468.06;;;-142.11;100.00
14800;BME280;7491;57.750;11.970;2023-04-24T19:55:09;74449.72;;;-142.11;100.00
14800;BME280;7491;57.750;11.970;2023-04-24T19:57:35;74451.75;;;-142.11;100.00
14800;BME280;7491;57.750;11.970;2023-04-24T20:00:03;74453.78;;;-142.11;100.00
14800;BME280;7491;57.750;11.970;2023-04-24T20:02:30;74455.81;;;-142.11;100.00
14800;BME280;7491;57.750;11.970;2023-04-24T20:04:56;74476.19;;;-142.11;100.00
14800;BME280;7491;57.750;11.970;2023-04-24T20:07:24;74463.97;;;-142.11;100.00
14800;BME280;7491;57.750;11.970;2023-04-24T20:09:51;74466.00;;;-142.11;100.00
14800;BME280;7491;57.750;11.970;2023-04-24T20:12:18;74451.75;;;-142.11;100.00
14800;BME280;7491;57.750;11.970;2023-04-24T20:14:45;74457.88;;;-142.11;100.00
14800;BME280;7491;57.750;11.970;2023-04-24T20:17:12;74447.69;;;-142.11;100.00
14800;BME280;7491;57.750;11.970;2023-04-24T20:19:39;74447.69;;;-142.11;100.00
14800;BME280;7491;57.750;11.970;2023-04-24T20:22:06;74451.75;;;-142.11;100.00
14800;BME280;7491;57.750;11.970;2023-04-24T20:24:34;74466.00;;;-142.11;100.00
14800;BME280;7491;57.750;11.970;2023-04-24T20:27:01;74463.97;;;-142.11;100.00
14800;BME280;7491;57.750;11.970;2023-04-24T20:29:28;74468.06;;;-142.11;100.00
14800;BME280;7491;57.750;11.970;2023-04-24T20:31:55;74466.00;;;-142.11;100.00
14800;BME280;7491;57.750;11.970;2023-04-24T20:34:22;74472.13;;;-142.11;100.00
14800;BME280;7491;57.750;11.970;2023-04-24T20:36:49;74492.50;;;-142.11;100.00
14800;BME280;7491;57.750;11.970;2023-04-24T20:39:15;74490.47;;;-142.11;100.00
14800;BME280;7491;57.750;11.970;2023-04-24T20:41:45;74496.56;;;-142.11;100.00
14800;BME280;7491;57.750;11.970;2023-04-24T20:44:11;74502.69;;;-142.11;100.00
14800;BME280;7491;57.750;11.970;2023-04-24T20:46:39;74506.75;;;-142.11;100.00
14800;BME280;7491;57.750;11.970;2023-04-24T20:49:05;74514.91;;;-142.11;100.00
14800;BME280;7491;57.750;11.970;2023-04-24T20:51:32;74535.28;;;-142.11;100.00
14800;BME280;7491;57.750;11.970;2023-04-24T20:53:59;74516.94;;;-142.11;100.00
14800;BME280;7491;57.750;11.970;2023-04-24T20:56:25;74523.06;;;-142.11;100.00
14800;BME280;7491;57.750;11.970;2023-04-24T20:58:54;74516.94;;;-142.11;100.00
14800;BME280;7491;57.750;11.970;2023-04-24T21:01:20;74516.94;;;-142.11;100.00
14800;BME280;7491;57.750;11.970;2023-04-24T21:03:47;74510.84;;;-142.11;100.00
14800;BME280;7491;57.750;11.970;2023-04-24T21:06:14;74521.03;;;-142.11;100.00
14800;BME280;7491;57.750;11.970;2023-04-24T21:08:41;74508.81;;;-142.11;100.00
14800;BME280;7491;57.750;11.970;2023-04-24T21:11:08;74525.09;;;-142.11;100.00
14800;BME280;7491;57.750;11.970;2023-04-24T21:13:34;74519.00;;;-142.11;100.00
14800;BME280;7491;57.750;11.970;2023-04-24T21:16:02;74521.03;;;-142.11;100.00
14800;BME280;7491;57.750;11.970;2023-04-24T21:18:29;74516.94;;;-142.11;100.00
14800;BME280;7491;57.750;11.970;2023-04-24T21:20:56;74519.00;;;-142.11;100.00
14800;BME280;7491;57.750;11.970;2023-04-24T21:23:23;74527.13;;;-142.11;100.00
14800;BME280;7491;57.750;11.970;2023-04-24T21:25:50;74531.22;;;-142.11;100.00
14800;BME280;7491;57.750;11.970;2023-04-24T21:28:17;74541.41;;;-142.11;100.00